Terminal Aerodrome Forecast
Issued by NWS

Home | Current Version | Previous Version | Text Only | Print | Product List | Glossary On
Versions: 1 2 3 4 5 6 7 8 9 10 11 12 13 14 15 16 17 18 19 20 21 22 23 24 25 26 27 28 29 30 31 32 33 34 35 36
000
FTUS43 KGRB 300535
TAFRHI
TAF
KRHI 300535Z 3006/3106 00000KT 5SM BR FEW004
     FM300700 00000KT 1SM BR SCT002
      TEMPO 3007/3011 1/2SM FG VV002
     FM301100 VRB03KT 1/2SM FG VV002
     FM301400 22006KT 5SM BR BKN008
     FM301600 22007KT P6SM FEW012
     FM301800 21008G14KT P6SM SKC=

USA.gov is the U.S. government's official web portal to all federal, state and local government web resources and services.